Huvudsida
METAR-TAF:

METAR-TAF

Flygplatser :

Førde flygplats. Bringeland

Førde, Norge

latitud: 61-27N, longitud: 005-52E, höjd: 150 m

Aktuellt väderrapport

Denna rapport gjordes för 25 minuter sedan, klockan 14:50 UTC
Vind 4 kt från väst, varierande mellan syd och nordväst
Temperatur 21°C
Fuktighet 64%
Tryck 1013 hPa
Sikt 10 km eller mer

METAR: ENBL 121450Z AUTO 28004KT 170V320 9999 FEW034/// SCT206/// 21/14 Q1013

Tid: 17:15 (15:15 UTC)

Väderprognos

Denna rapport gjordes för 22 timmar och 15 minuter sedan, klockan 17:00 UTC
Prognos gäller från 11 kl. 18 UTC till 11 kl. 22 UTC
Vind 3 kt varierande vindriktning
Sikt 10 km eller mer
Spridda moln på en höjd av 1500 ft
Brutna moln på en höjd av 2000 ft

TAF: ENBL 111700Z 1118/1122 VRB03KT 9999 SCT015 BKN020

Aktuella väderrapporter och prognoser från 4000 flygplatser (METAR- och TAF-rapporter).

De tillgängliga stationerna syns som gula och röda prickar på kartan.

För musen över prickarna för att se namnen på stationerna.

Klicka sedan för att få väderrapporter och prognoser.

För att ändra kartan: Klicka på de gröna knapparna med ett svart kors på för att zooma in; den gröna knappen med ett streck på för att zooma ut; eller på de gröna pilarna för angränsande kartor.


METAR-TAF: